Time;durP1;ratioP1;P1;durP2;ratioP2;P2;SDS_P1;SDS_P2;PMS_P1;PMS_P2;Temp;Humidity;BMP_temperature;BMP_pressure;BME280_temperature;BME280_humidity;BME280_pressure;Samples;Min_cycle;Max_cycle;Signal;HPM_P1;HPM_P2
2022/02/12 00:00:42;;;;;;;18.25;4.03;;;;;;;;;;5010258;28;20014;-72
2022/02/12 00:03:08;;;;;;;6.90;2.42;;;;;;;;;;5010789;28;20387;-71
2022/02/12 00:05:34;;;;;;;4.03;2.33;;;;;;;;;;5011602;28;20022;-73
2022/02/12 00:08:00;;;;;;;9.05;2.63;;;;;;;;;;5011951;28;20106;-73
2022/02/12 00:10:28;;;;;;;6.85;1.77;;;;;;;;;;5011626;28;20029;-72
2022/02/12 00:12:54;;;;;;;5.57;2.05;;;;;;;;;;5011009;28;20480;-73
2022/02/12 00:15:21;;;;;;;7.32;1.67;;;;;;;;;;5011504;28;20030;-73
2022/02/12 00:17:47;;;;;;;3.40;1.25;;;;;;;;;;5011440;28;20472;-73
2022/02/12 00:20:14;;;;;;;8.05;2.03;;;;;;;;;;5010076;28;20034;-72
2022/02/12 00:22:40;;;;;;;4.05;1.90;;;;;;;;;;5011130;28;20492;-72
2022/02/12 00:25:06;;;;;;;8.65;2.80;;;;;;;;;;5009626;28;20026;-71
2022/02/12 00:27:32;;;;;;;12.85;1.80;;;;;;;;;;5011246;28;20026;-71
2022/02/12 00:29:58;;;;;;;7.15;2.60;;;;;;;;;;5011243;28;20576;-71
2022/02/12 00:32:25;;;;;;;5.22;1.63;;;;;;;;;;5011154;28;20061;-72
2022/02/12 00:34:51;;;;;;;7.72;1.73;;;;;;;;;;5010946;28;20404;-71
2022/02/12 00:37:18;;;;;;;9.13;1.40;;;;;;;;;;5011344;28;20025;-71
2022/02/12 00:39:44;;;;;;;12.20;2.88;;;;;;;;;;5011883;28;20109;-74
2022/02/12 00:42:10;;;;;;;6.72;1.40;;;;;;;;;;5014388;28;20117;-72
2022/02/12 00:44:35;;;;;;;7.85;2.08;;;;;;;;;;5014062;28;20599;-70
2022/02/12 00:47:02;;;;;;;3.42;1.63;;;;;;;;;;5013589;28;20041;-72
2022/02/12 00:49:28;;;;;;;6.82;1.45;;;;;;;;;;5014850;28;20492;-72
2022/02/12 00:51:54;;;;;;;7.30;1.67;;;;;;;;;;5014813;28;20034;-72
2022/02/12 00:54:20;;;;;;;6.25;1.77;;;;;;;;;;5012772;28;20128;-73
2022/02/12 00:56:46;;;;;;;7.22;1.80;;;;;;;;;;5013437;28;20064;-73
2022/02/12 00:59:12;;;;;;;6.05;1.58;;;;;;;;;;5014406;28;20089;-73
2022/02/12 01:01:38;;;;;;;8.68;1.88;;;;;;;;;;5014574;28;20026;-73
2022/02/12 01:04:05;;;;;;;11.43;2.33;;;;;;;;;;5013635;28;20507;-73
2022/02/12 01:06:31;;;;;;;6.88;1.90;;;;;;;;;;5014518;28;20380;-73
2022/02/12 01:08:57;;;;;;;5.22;2.00;;;;;;;;;;5014367;28;20026;-73
2022/02/12 01:11:23;;;;;;;7.45;1.70;;;;;;;;;;5014219;28;20416;-73
2022/02/12 01:13:49;;;;;;;5.55;2.00;;;;;;;;;;5013425;28;20049;-72
2022/02/12 01:16:15;;;;;;;5.93;1.55;;;;;;;;;;5014336;28;20030;-73
2022/02/12 01:18:41;;;;;;;6.50;1.67;;;;;;;;;;5012951;28;20022;-73
2022/02/12 01:21:07;;;;;;;5.45;1.55;;;;;;;;;;5014204;28;20395;-73
2022/02/12 01:23:33;;;;;;;7.25;2.10;;;;;;;;;;5013528;28;20089;-72
2022/02/12 01:25:59;;;;;;;4.60;1.90;;;;;;;;;;5014168;28;20124;-71
2022/02/12 01:28:25;;;;;;;6.78;1.77;;;;;;;;;;5014192;28;20030;-72
2022/02/12 01:30:51;;;;;;;6.13;2.15;;;;;;;;;;5014186;28;20030;-72
2022/02/12 01:33:17;;;;;;;6.07;2.10;;;;;;;;;;5013905;28;20026;-72
2022/02/12 01:35:43;;;;;;;8.13;3.05;;;;;;;;;;5014588;28;20488;-72
2022/02/12 01:38:09;;;;;;;11.70;2.88;;;;;;;;;;5013032;28;20053;-71
2022/02/12 01:40:35;;;;;;;11.15;2.28;;;;;;;;;;5014315;28;20072;-72
2022/02/12 01:43:02;;;;;;;10.35;3.20;;;;;;;;;;5013422;28;20033;-70
2022/02/12 01:45:31;;;;;;;9.80;3.13;;;;;;;;;;5014293;28;20036;-72
2022/02/12 01:47:57;;;;;;;6.57;2.83;;;;;;;;;;5013807;28;20384;-72
2022/02/12 01:50:23;;;;;;;5.22;2.63;;;;;;;;;;5012103;28;20026;-72
2022/02/12 01:52:50;;;;;;;9.32;3.15;;;;;;;;;;5013153;28;20033;-72
2022/02/12 01:55:16;;;;;;;5.35;2.85;;;;;;;;;;5013393;28;20484;-71
2022/02/12 01:57:42;;;;;;;9.55;2.53;;;;;;;;;;5013823;28;20026;-72
2022/02/12 02:00:09;;;;;;;11.52;3.70;;;;;;;;;;5013367;28;20514;-72
2022/02/12 02:02:38;;;;;;;9.77;3.72;;;;;;;;;;5013454;28;20021;-72
2022/02/12 02:05:05;;;;;;;12.57;3.17;;;;;;;;;;5011591;28;20026;-72
2022/02/12 02:07:31;;;;;;;10.18;3.72;;;;;;;;;;5012037;28;20026;-72
2022/02/12 02:09:57;;;;;;;9.13;3.75;;;;;;;;;;5011834;28;20036;-72
2022/02/12 02:12:23;;;;;;;10.63;4.53;;;;;;;;;;5013244;28;20038;-72
2022/02/12 02:14:49;;;;;;;12.57;3.10;;;;;;;;;;5012731;28;20026;-72
2022/02/12 02:17:15;;;;;;;10.57;3.40;;;;;;;;;;5013252;28;20108;-72
2022/02/12 02:19:41;;;;;;;5.80;2.92;;;;;;;;;;5012054;28;20026;-72
2022/02/12 02:22:10;;;;;;;7.95;2.80;;;;;;;;;;5013419;28;20034;-72
2022/02/12 02:24:39;;;;;;;7.50;3.42;;;;;;;;;;5012507;28;20072;-72
2022/02/12 02:27:05;;;;;;;12.23;2.85;;;;;;;;;;5016084;28;20036;-72
2022/02/12 02:29:31;;;;;;;8.98;2.97;;;;;;;;;;5012470;28;20109;-71
2022/02/12 02:31:57;;;;;;;9.10;2.90;;;;;;;;;;5013447;28;20030;-71
2022/02/12 02:34:23;;;;;;;8.80;2.70;;;;;;;;;;5012738;28;20088;-71
2022/02/12 02:36:51;;;;;;;8.55;3.17;;;;;;;;;;5013323;28;20395;-71
2022/02/12 02:39:17;;;;;;;8.63;2.30;;;;;;;;;;5013244;28;20120;-71
2022/02/12 02:41:43;;;;;;;8.55;3.63;;;;;;;;;;5027676;23;20080;-72
2022/02/12 02:44:09;;;;;;;10.10;2.97;;;;;;;;;;5012153;28;20030;-72
2022/02/12 02:46:35;;;;;;;10.13;3.70;;;;;;;;;;5012626;28;20030;-72
2022/02/12 02:49:01;;;;;;;9.05;2.55;;;;;;;;;;5012831;28;20104;-72
2022/02/12 02:56:56;;;;;;;7.03;3.80;;;;;;;;;;5012731;28;20092;-73
2022/02/12 02:59:22;;;;;;;9.50;3.20;;;;;;;;;;5012372;28;20037;-72
2022/02/12 03:01:52;;;;;;;6.85;2.70;;;;;;;;;;5012651;28;20033;-71
2022/02/12 03:04:19;;;;;;;8.95;3.08;;;;;;;;;;5011348;28;20463;-72
2022/02/12 03:06:45;;;;;;;15.23;3.80;;;;;;;;;;5011400;28;20026;-72
2022/02/12 03:09:11;;;;;;;17.38;3.15;;;;;;;;;;5012693;28;20403;-72
2022/02/12 03:11:37;;;;;;;9.13;3.20;;;;;;;;;;5012553;28;20038;-72
2022/02/12 03:14:03;;;;;;;11.55;3.50;;;;;;;;;;5010204;28;20033;-71
2022/02/12 03:16:29;;;;;;;8.45;3.03;;;;;;;;;;5012240;28;20052;-72
2022/02/12 03:18:55;;;;;;;14.50;3.45;;;;;;;;;;5012335;28;20029;-72
2022/02/12 03:21:21;;;;;;;13.52;3.72;;;;;;;;;;5012175;28;20564;-72
2022/02/12 03:23:47;;;;;;;9.80;3.90;;;;;;;;;;5011442;28;20060;-72
2022/02/12 03:26:14;;;;;;;11.63;3.80;;;;;;;;;;5012304;28;20037;-72
2022/02/12 03:28:40;;;;;;;11.88;4.53;;;;;;;;;;5012046;28;20030;-72
2022/02/12 03:31:06;;;;;;;9.55;4.55;;;;;;;;;;5012285;28;20040;-71
2022/02/12 03:33:33;;;;;;;15.82;5.15;;;;;;;;;;5011358;28;20034;-72
2022/02/12 03:35:59;;;;;;;12.30;4.70;;;;;;;;;;5012115;28;20476;-71
2022/02/12 03:38:27;;;;;;;16.10;4.47;;;;;;;;;;5011883;28;20036;-72
2022/02/12 03:40:54;;;;;;;17.15;4.95;;;;;;;;;;5011811;28;20105;-71
2022/02/12 03:43:20;;;;;;;10.90;4.28;;;;;;;;;;5011568;28;21034;-72
2022/02/12 03:45:46;;;;;;;13.40;4.47;;;;;;;;;;5012009;28;20121;-72
2022/02/12 03:48:13;;;;;;;9.90;4.20;;;;;;;;;;5010606;28;20064;-72
2022/02/12 03:50:39;;;;;;;12.02;4.50;;;;;;;;;;5011772;28;20026;-72
2022/02/12 03:53:06;;;;;;;17.13;4.72;;;;;;;;;;5011126;28;20037;-72
2022/02/12 03:55:37;;;;;;;11.63;4.20;;;;;;;;;;5011672;28;20029;-72
2022/02/12 03:58:04;;;;;;;16.13;4.53;;;;;;;;;;5011905;28;20022;-72
2022/02/12 04:00:30;;;;;;;11.27;5.07;;;;;;;;;;5011830;28;20028;-72
2022/02/12 04:02:57;;;;;;;15.82;4.47;;;;;;;;;;5011727;28;20030;-72
2022/02/12 04:05:23;;;;;;;10.55;4.03;;;;;;;;;;5011724;28;20024;-72
2022/02/12 04:07:49;;;;;;;12.38;4.85;;;;;;;;;;5011892;28;20025;-71
2022/02/12 04:10:17;;;;;;;16.67;5.88;;;;;;;;;;5011559;28;20037;-72
2022/02/12 04:12:43;;;;;;;14.80;4.70;;;;;;;;;;5011671;28;20084;-72
2022/02/12 04:15:10;;;;;;;19.60;5.10;;;;;;;;;;5014522;28;20503;-72
2022/02/12 04:17:36;;;;;;;15.80;6.20;;;;;;;;;;5015970;28;20104;-72
2022/02/12 04:20:03;;;;;;;15.15;5.80;;;;;;;;;;5014175;28;20474;-72
2022/02/12 04:22:33;;;;;;;14.13;4.78;;;;;;;;;;5015465;28;20112;-72
2022/02/12 04:24:59;;;;;;;14.45;5.18;;;;;;;;;;5011996;28;20108;-74
2022/02/12 04:27:26;;;;;;;19.02;6.13;;;;;;;;;;5011499;28;20406;-72
2022/02/12 04:29:51;;;;;;;15.80;5.68;;;;;;;;;;5015443;28;20069;-72
2022/02/12 04:32:20;;;;;;;15.50;5.30;;;;;;;;;;5013912;28;20029;-72
2022/02/12 04:34:46;;;;;;;12.38;4.78;;;;;;;;;;5014603;28;20022;-72
2022/02/12 04:37:12;;;;;;;15.30;5.75;;;;;;;;;;5015136;28;20117;-72
2022/02/12 04:39:38;;;;;;;16.17;5.82;;;;;;;;;;5015325;28;20493;-72
2022/02/12 04:42:11;;;;;;;13.73;5.03;;;;;;;;;;5015038;28;20029;-72
2022/02/12 04:44:37;;;;;;;22.15;6.05;;;;;;;;;;5012412;28;20026;-72
2022/02/12 04:47:03;;;;;;;17.27;5.50;;;;;;;;;;5014338;28;20034;-71
2022/02/12 04:49:29;;;;;;;12.75;5.85;;;;;;;;;;5015274;28;20030;-71
2022/02/12 04:51:55;;;;;;;14.15;4.95;;;;;;;;;;5015118;28;20038;-71
2022/02/12 04:54:21;;;;;;;16.17;6.20;;;;;;;;;;5014536;28;20108;-72
2022/02/12 04:56:47;;;;;;;22.30;5.50;;;;;;;;;;5014879;28;20030;-72
2022/02/12 04:59:13;;;;;;;16.08;6.60;;;;;;;;;;5014795;28;20030;-72
2022/02/12 05:01:39;;;;;;;15.27;6.35;;;;;;;;;;5013242;28;20165;-71
2022/02/12 05:04:05;;;;;;;15.57;5.43;;;;;;;;;;5014511;28;20511;-72
2022/02/12 05:06:31;;;;;;;12.93;5.65;;;;;;;;;;5015412;28;20057;-72
2022/02/12 05:08:57;;;;;;;16.55;6.13;;;;;;;;;;5015058;28;20036;-72
2022/02/12 05:11:23;;;;;;;19.25;5.75;;;;;;;;;;5015149;28;20026;-72
2022/02/12 05:13:49;;;;;;;22.95;7.30;;;;;;;;;;5014016;28;20057;-71
2022/02/12 05:16:15;;;;;;;14.90;6.40;;;;;;;;;;5013249;28;20474;-72
2022/02/12 05:18:41;;;;;;;22.08;6.78;;;;;;;;;;5014074;28;20087;-72
2022/02/12 05:21:07;;;;;;;19.83;6.80;;;;;;;;;;5014308;28;20113;-72
2022/02/12 05:23:33;;;;;;;16.98;6.53;;;;;;;;;;5013660;28;20037;-73
2022/02/12 05:25:59;;;;;;;18.40;7.20;;;;;;;;;;5013776;28;20529;-72
2022/02/12 05:28:25;;;;;;;17.38;6.95;;;;;;;;;;5014339;28;20026;-72
2022/02/12 05:30:51;;;;;;;14.65;6.60;;;;;;;;;;5013107;28;20484;-72
2022/02/12 05:33:17;;;;;;;13.90;6.43;;;;;;;;;;5014243;28;20028;-72
2022/02/12 05:35:43;;;;;;;16.23;6.15;;;;;;;;;;5014902;28;20097;-72
2022/02/12 05:38:09;;;;;;;17.30;6.82;;;;;;;;;;5014110;28;20046;-72
2022/02/12 05:40:35;;;;;;;22.23;7.60;;;;;;;;;;5013940;28;20068;-72
2022/02/12 05:43:02;;;;;;;26.63;7.45;;;;;;;;;;5013138;28;20041;-72
2022/02/12 05:45:28;;;;;;;18.70;6.72;;;;;;;;;;5014150;28;20554;-72
2022/02/12 05:47:54;;;;;;;18.25;7.10;;;;;;;;;;5013959;28;20030;-72
2022/02/12 05:50:21;;;;;;;18.77;6.72;;;;;;;;;;5013872;28;20026;-72
2022/02/12 05:52:47;;;;;;;20.40;7.10;;;;;;;;;;5013309;28;20398;-72
2022/02/12 05:55:13;;;;;;;21.45;6.07;;;;;;;;;;5012489;28;20033;-72
2022/02/12 05:57:39;;;;;;;18.73;6.38;;;;;;;;;;5013751;28;20121;-72
2022/02/12 06:00:05;;;;;;;23.10;7.20;;;;;;;;;;5013847;28;20048;-72
2022/02/12 06:02:31;;;;;;;16.75;6.60;;;;;;;;;;5013784;28;20108;-72
2022/02/12 06:04:57;;;;;;;16.33;6.53;;;;;;;;;;5012737;28;20536;-72
2022/02/12 06:07:23;;;;;;;24.83;8.05;;;;;;;;;;5013511;28;20049;-72
2022/02/12 06:09:49;;;;;;;16.70;7.15;;;;;;;;;;5012198;28;20104;-72
2022/02/12 06:12:15;;;;;;;29.50;9.68;;;;;;;;;;5013358;28;20113;-72
2022/02/12 06:14:41;;;;;;;34.38;8.98;;;;;;;;;;5011452;28;20033;-72
2022/02/12 06:17:07;;;;;;;26.35;8.93;;;;;;;;;;5013518;28;20049;-72
2022/02/12 06:19:33;;;;;;;30.17;8.23;;;;;;;;;;5013216;28;20140;-72
2022/02/12 06:21:59;;;;;;;20.45;8.75;;;;;;;;;;5013511;28;20163;-72
2022/02/12 06:24:25;;;;;;;23.15;7.65;;;;;;;;;;5013027;28;20026;-71
2022/02/12 06:26:57;;;;;;;22.30;7.38;;;;;;;;;;5013678;28;20119;-71
2022/02/12 06:29:23;;;;;;;21.33;7.78;;;;;;;;;;5013650;28;20044;-71
2022/02/12 06:31:49;;;;;;;24.05;7.97;;;;;;;;;;5013133;28;20029;-71
2022/02/12 06:34:16;;;;;;;21.63;6.80;;;;;;;;;;5012568;28;20034;-72
2022/02/12 06:36:42;;;;;;;28.10;7.35;;;;;;;;;;5012619;28;20053;-72
2022/02/12 06:39:08;;;;;;;22.80;7.68;;;;;;;;;;5011959;28;20468;-72
2022/02/12 06:41:35;;;;;;;35.20;11.23;;;;;;;;;;5012625;28;20037;-71
2022/02/12 06:44:01;;;;;;;37.45;11.27;;;;;;;;;;5012268;28;20491;-72
2022/02/12 06:46:27;;;;;;;41.65;13.90;;;;;;;;;;5012968;28;20026;-72
2022/02/12 06:48:53;;;;;;;41.00;11.18;;;;;;;;;;5013015;28;20476;-72
2022/02/12 06:51:19;;;;;;;33.53;10.07;;;;;;;;;;5012847;28;20030;-72
2022/02/12 06:53:45;;;;;;;31.15;8.93;;;;;;;;;;5012148;28;20021;-72
2022/02/12 06:56:11;;;;;;;22.83;7.70;;;;;;;;;;5012081;28;20171;-72
2022/02/12 06:58:37;;;;;;;16.00;6.93;;;;;;;;;;5011331;28;20467;-73
2022/02/12 07:01:04;;;;;;;14.02;6.43;;;;;;;;;;5012315;28;20022;-73
2022/02/12 07:03:29;;;;;;;19.98;5.97;;;;;;;;;;5010441;28;20025;-73
2022/02/12 07:05:55;;;;;;;14.25;6.22;;;;;;;;;;5012189;28;20600;-73
2022/02/12 07:08:21;;;;;;;12.90;5.15;;;;;;;;;;5012304;28;20369;-72
2022/02/12 07:10:47;;;;;;;18.90;5.47;;;;;;;;;;5011957;28;20112;-72
2022/02/12 07:13:14;;;;;;;12.13;5.68;;;;;;;;;;5011428;28;20014;-72
2022/02/12 07:15:40;;;;;;;12.48;5.28;;;;;;;;;;5012080;28;20447;-72
2022/02/12 07:18:06;;;;;;;9.70;4.90;;;;;;;;;;5012066;28;20026;-71
2022/02/12 07:20:32;;;;;;;11.32;5.50;;;;;;;;;;5011696;28;20472;-73
2022/02/12 07:22:58;;;;;;;16.48;5.38;;;;;;;;;;5011476;28;20116;-73
2022/02/12 07:25:24;;;;;;;13.60;6.75;;;;;;;;;;5012198;28;20048;-73
2022/02/12 07:27:57;;;;;;;12.10;6.28;;;;;;;;;;5012097;28;20030;-73
2022/02/12 07:30:23;;;;;;;13.60;6.32;;;;;;;;;;5008527;28;20109;-72
2022/02/12 07:32:49;;;;;;;13.93;6.22;;;;;;;;;;5011494;28;20026;-73
2022/02/12 07:35:16;;;;;;;14.63;7.13;;;;;;;;;;5012670;28;20101;-74
2022/02/12 07:37:43;;;;;;;16.55;7.57;;;;;;;;;;5000449;28;20046;-75
2022/02/12 07:40:10;;;;;;;17.45;7.72;;;;;;;;;;4991867;28;20034;-74
2022/02/12 07:42:36;;;;;;;16.65;7.95;;;;;;;;;;4992325;28;20068;-74
2022/02/12 07:45:03;;;;;;;14.43;8.50;;;;;;;;;;4993948;28;20511;-74
2022/02/12 07:47:29;;;;;;;15.90;7.38;;;;;;;;;;5011616;28;20095;-74
2022/02/12 07:49:55;;;;;;;12.02;7.25;;;;;;;;;;5014597;28;20065;-74
2022/02/12 07:52:21;;;;;;;12.82;7.00;;;;;;;;;;5015461;28;20034;-75
2022/02/12 07:54:47;;;;;;;16.92;7.45;;;;;;;;;;5015150;28;20389;-75
2022/02/12 07:57:13;;;;;;;14.90;6.60;;;;;;;;;;5014577;28;20032;-75
2022/02/12 07:59:39;;;;;;;13.68;7.53;;;;;;;;;;5015683;28;20059;-75
2022/02/12 08:02:05;;;;;;;12.18;6.93;;;;;;;;;;5015713;28;20025;-75
2022/02/12 08:04:31;;;;;;;16.58;7.35;;;;;;;;;;5014837;28;20064;-75
2022/02/12 08:09:41;;;;;;;15.43;7.93;;;;;;;;;;5015441;28;20515;-73
2022/02/12 08:12:13;;;;;;;11.75;6.60;;;;;;;;;;5015460;28;20077;-74
2022/02/12 08:14:42;;;;;;;16.25;8.38;;;;;;;;;;5014503;28;20101;-75
2022/02/12 08:17:08;;;;;;;16.40;7.25;;;;;;;;;;5015508;28;20025;-74
2022/02/12 08:19:34;;;;;;;18.63;8.32;;;;;;;;;;5015039;28;20032;-74
2022/02/12 08:22:00;;;;;;;14.70;7.90;;;;;;;;;;5015349;28;20022;-74
2022/02/12 08:24:26;;;;;;;16.92;7.20;;;;;;;;;;5014613;28;20391;-75
2022/02/12 08:26:52;;;;;;;13.45;6.75;;;;;;;;;;5015341;28;20018;-76
2022/02/12 08:29:18;;;;;;;12.95;6.25;;;;;;;;;;5014877;28;20036;-77
2022/02/12 08:31:44;;;;;;;12.38;6.47;;;;;;;;;;5015185;28;20109;-73
2022/02/12 08:34:10;;;;;;;11.85;6.00;;;;;;;;;;5013797;28;20113;-75
2022/02/12 08:36:36;;;;;;;10.18;5.55;;;;;;;;;;5014944;28;20514;-75
2022/02/12 08:39:02;;;;;;;12.93;5.95;;;;;;;;;;5014632;28;20099;-74
2022/02/12 08:41:28;;;;;;;12.32;6.50;;;;;;;;;;5027674;23;20037;-68
2022/02/12 08:43:54;;;;;;;11.70;5.97;;;;;;;;;;4994945;28;20089;-70
2022/02/12 08:46:20;;;;;;;12.07;6.43;;;;;;;;;;4994824;28;20050;-69
2022/02/12 08:48:47;;;;;;;10.57;6.75;;;;;;;;;;4995306;28;20026;-70
2022/02/12 08:51:13;;;;;;;10.82;6.40;;;;;;;;;;4995039;28;20034;-71
2022/02/12 08:53:39;;;;;;;8.55;5.63;;;;;;;;;;4993913;28;20026;-71
2022/02/12 08:56:06;;;;;;;14.43;6.70;;;;;;;;;;4995667;28;20049;-71
2022/02/12 08:58:32;;;;;;;15.98;7.22;;;;;;;;;;4995475;28;20487;-68
2022/02/12 09:00:58;;;;;;;14.38;7.80;;;;;;;;;;4993945;28;20109;-67
2022/02/12 09:03:24;;;;;;;13.82;5.95;;;;;;;;;;4994375;28;20062;-70
2022/02/12 09:05:50;;;;;;;11.90;6.30;;;;;;;;;;4994733;28;20392;-70
2022/02/12 09:08:17;;;;;;;13.65;5.70;;;;;;;;;;4994574;28;20154;-69
2022/02/12 09:10:43;;;;;;;10.50;5.85;;;;;;;;;;4994823;28;20555;-69
2022/02/12 09:13:10;;;;;;;10.18;5.40;;;;;;;;;;4993924;28;20057;-70
2022/02/12 09:15:36;;;;;;;12.73;6.30;;;;;;;;;;4994417;28;20077;-69
2022/02/12 09:18:02;;;;;;;11.05;5.82;;;;;;;;;;4994797;28;20110;-69
2022/02/12 09:20:28;;;;;;;9.77;4.95;;;;;;;;;;4994193;28;20026;-70
2022/02/12 09:22:54;;;;;;;8.60;5.03;;;;;;;;;;4993391;28;20457;-71
2022/02/12 09:25:20;;;;;;;11.23;5.05;;;;;;;;;;4994142;28;20069;-70
2022/02/12 09:27:46;;;;;;;7.47;4.00;;;;;;;;;;4994243;28;20054;-66
2022/02/12 09:30:12;;;;;;;8.55;4.70;;;;;;;;;;4994756;28;20113;-73
2022/02/12 09:32:38;;;;;;;7.60;4.95;;;;;;;;;;4994291;28;20030;-70
2022/02/12 09:35:05;;;;;;;9.05;4.75;;;;;;;;;;4993943;28;20041;-67
2022/02/12 09:37:31;;;;;;;9.73;5.28;;;;;;;;;;4993767;28;20393;-70
2022/02/12 09:39:57;;;;;;;10.35;4.82;;;;;;;;;;4992236;28;20030;-69
2022/02/12 09:42:23;;;;;;;9.63;4.18;;;;;;;;;;4992132;28;20038;-69
2022/02/12 09:44:49;;;;;;;8.90;4.57;;;;;;;;;;4991621;28;20061;-68
2022/02/12 09:47:33;;;;;;;11.50;4.82;;;;;;;;;;4992277;28;20071;-69
2022/02/12 09:49:59;;;;;;;9.93;4.50;;;;;;;;;;4991463;28;20027;-69
2022/02/12 09:52:30;;;;;;;5.95;3.97;;;;;;;;;;4993765;28;20045;-67
2022/02/12 09:54:56;;;;;;;7.63;4.25;;;;;;;;;;4992706;28;20066;-70
2022/02/12 09:57:22;;;;;;;6.38;4.05;;;;;;;;;;4991975;28;20097;-71
2022/02/12 09:59:48;;;;;;;7.88;4.30;;;;;;;;;;4992067;28;20038;-70
2022/02/12 10:02:18;;;;;;;7.75;4.25;;;;;;;;;;4992162;28;20102;-70
2022/02/12 10:04:43;;;;;;;8.43;4.80;;;;;;;;;;4992008;28;20030;-69
2022/02/12 10:07:22;;;;;;;8.65;4.35;;;;;;;;;;4992364;28;20032;-70
2022/02/12 10:09:49;;;;;;;6.80;3.90;;;;;;;;;;4992638;28;20033;-69
2022/02/12 10:12:24;;;;;;;8.75;4.63;;;;;;;;;;4993898;28;20054;-70
2022/02/12 10:14:50;;;;;;;7.85;4.82;;;;;;;;;;4993418;28;20447;-70
2022/02/12 10:17:20;;;;;;;9.90;4.85;;;;;;;;;;4993992;28;20038;-68
2022/02/12 10:19:47;;;;;;;7.57;4.50;;;;;;;;;;4993800;28;20105;-69
2022/02/12 10:22:16;;;;;;;7.68;4.65;;;;;;;;;;4993829;28;20109;-71
2022/02/12 10:24:50;;;;;;;8.63;4.20;;;;;;;;;;4988994;28;20077;-70
2022/02/12 10:27:16;;;;;;;8.70;4.88;;;;;;;;;;4978880;28;20085;-73
2022/02/12 10:29:45;;;;;;;7.07;4.90;;;;;;;;;;4991658;28;20106;-71
2022/02/12 10:32:11;;;;;;;14.65;4.93;;;;;;;;;;4991862;28;20041;-71
2022/02/12 10:34:39;;;;;;;8.02;4.65;;;;;;;;;;4991143;28;20037;-69
2022/02/12 10:37:05;;;;;;;8.43;4.97;;;;;;;;;;4992632;28;20085;-70
2022/02/12 10:39:31;;;;;;;12.50;4.70;;;;;;;;;;4990875;28;20030;-70
2022/02/12 10:42:07;;;;;;;9.25;5.03;;;;;;;;;;4993499;28;20034;-70
2022/02/12 10:44:34;;;;;;;11.57;4.80;;;;;;;;;;4991970;28;20106;-70
2022/02/12 10:47:00;;;;;;;6.60;4.50;;;;;;;;;;4991276;28;20022;-70
2022/02/12 10:49:26;;;;;;;8.38;4.50;;;;;;;;;;4990438;28;20369;-71
2022/02/12 10:51:52;;;;;;;9.05;3.78;;;;;;;;;;4990561;28;20069;-71
2022/02/12 10:54:19;;;;;;;9.25;4.20;;;;;;;;;;4990392;28;20424;-70
2022/02/12 10:56:51;;;;;;;7.78;4.80;;;;;;;;;;4989955;28;20022;-71
2022/02/12 10:59:19;;;;;;;6.93;4.50;;;;;;;;;;4990252;28;20041;-70
2022/02/12 11:01:44;;;;;;;9.60;4.55;;;;;;;;;;4992042;28;20392;-71
2022/02/12 11:04:10;;;;;;;9.05;4.10;;;;;;;;;;4974723;28;20024;-73
2022/02/12 11:06:37;;;;;;;9.63;4.47;;;;;;;;;;5007601;28;20022;-70
2022/02/12 11:09:03;;;;;;;8.48;4.28;;;;;;;;;;5011063;28;20040;-71
2022/02/12 11:11:31;;;;;;;8.25;4.03;;;;;;;;;;5011061;28;20040;-70
2022/02/12 11:13:58;;;;;;;7.70;4.60;;;;;;;;;;5008174;28;20040;-70
2022/02/12 11:16:24;;;;;;;10.43;3.85;;;;;;;;;;4991137;28;20049;-70
2022/02/12 11:18:50;;;;;;;7.47;3.63;;;;;;;;;;4988040;28;20041;-70
2022/02/12 11:21:17;;;;;;;12.95;4.05;;;;;;;;;;4991011;28;20102;-68
2022/02/12 11:23:58;;;;;;;7.00;3.08;;;;;;;;;;4988053;28;20377;-67
2022/02/12 11:26:24;;;;;;;7.70;3.00;;;;;;;;;;4989513;28;20033;-72
2022/02/12 11:28:52;;;;;;;6.03;2.97;;;;;;;;;;4991001;28;20034;-69
2022/02/12 11:31:19;;;;;;;5.13;3.17;;;;;;;;;;4992542;28;20421;-67
2022/02/12 11:34:03;;;;;;;9.05;4.18;;;;;;;;;;4991415;28;20028;-68
2022/02/12 11:36:29;;;;;;;5.40;2.90;;;;;;;;;;4991966;28;20050;-69
2022/02/12 11:39:07;;;;;;;4.78;3.13;;;;;;;;;;4991983;28;20480;-68
2022/02/12 11:41:33;;;;;;;5.65;3.17;;;;;;;;;;4991797;28;20038;-68
2022/02/12 11:43:59;;;;;;;5.85;3.28;;;;;;;;;;4986496;28;20314;-69
2022/02/12 11:46:54;;;;;;;7.05;2.97;;;;;;;;;;4991312;28;20076;-69
2022/02/12 11:49:30;;;;;;;8.20;3.22;;;;;;;;;;4982584;28;20045;-70
2022/02/12 11:51:57;;;;;;;9.07;3.80;;;;;;;;;;4991100;28;20034;-69
2022/02/12 11:54:42;;;;;;;10.60;3.90;;;;;;;;;;4989958;28;20034;-69
2022/02/12 11:57:08;;;;;;;6.25;3.38;;;;;;;;;;4991093;28;20069;-70
2022/02/12 11:59:34;;;;;;;7.18;2.92;;;;;;;;;;4989514;28;20384;-70
2022/02/12 12:02:00;;;;;;;6.00;3.40;;;;;;;;;;4990346;28;20030;-67
2022/02/12 12:04:30;;;;;;;7.45;3.58;;;;;;;;;;4990112;28;20026;-67
2022/02/12 12:07:00;;;;;;;5.60;3.08;;;;;;;;;;4990447;28;20030;-69
2022/02/12 12:09:27;;;;;;;9.60;3.85;;;;;;;;;;4990583;28;20031;-69
2022/02/12 12:12:14;;;;;;;7.82;3.30;;;;;;;;;;4991049;28;20153;-69
2022/02/12 12:14:40;;;;;;;6.28;3.35;;;;;;;;;;4990292;28;20652;-69
2022/02/12 12:17:07;;;;;;;4.75;3.05;;;;;;;;;;4995104;28;20314;-68
2022/02/12 12:19:33;;;;;;;5.30;3.45;;;;;;;;;;4990958;28;20026;-71
2022/02/12 12:22:02;;;;;;;8.85;4.15;;;;;;;;;;4991272;28;20038;-68
2022/02/12 12:24:29;;;;;;;9.13;3.85;;;;;;;;;;4990257;28;20045;-69
2022/02/12 12:26:55;;;;;;;5.70;3.85;;;;;;;;;;4990930;28;20027;-69
2022/02/12 12:32:14;;;;;;;6.95;4.13;;;;;;;;;;4989641;28;20114;-70
2022/02/12 12:34:52;;;;;;;9.68;4.57;;;;;;;;;;4990007;28;20455;-69
2022/02/12 12:37:23;;;;;;;6.93;3.70;;;;;;;;;;4993588;28;20089;-69
2022/02/12 12:39:50;;;;;;;9.10;4.10;;;;;;;;;;4993949;28;20034;-70
2022/02/12 12:42:20;;;;;;;6.35;3.97;;;;;;;;;;4958733;28;1025275;-69
2022/02/12 12:45:03;;;;;;;5.60;3.85;;;;;;;;;;4994508;28;20077;-70
2022/02/12 12:47:29;;;;;;;8.88;3.67;;;;;;;;;;4995017;28;20026;-69
2022/02/12 12:49:56;;;;;;;6.45;3.63;;;;;;;;;;4994863;28;20033;-69
2022/02/12 12:52:25;;;;;;;9.68;3.70;;;;;;;;;;4994448;28;20030;-68
2022/02/12 12:54:55;;;;;;;7.93;3.38;;;;;;;;;;4994160;28;20453;-68
2022/02/12 12:57:25;;;;;;;6.50;3.67;;;;;;;;;;4994649;28;20030;-69
2022/02/12 12:59:52;;;;;;;8.35;4.65;;;;;;;;;;4993579;28;20066;-70
2022/02/12 13:02:21;;;;;;;8.05;4.25;;;;;;;;;;4994949;28;20039;-71
2022/02/12 13:04:54;;;;;;;6.18;3.85;;;;;;;;;;4992783;28;20472;-69
2022/02/12 13:07:22;;;;;;;10.40;3.95;;;;;;;;;;4994584;28;20045;-69
2022/02/12 13:09:49;;;;;;;8.07;3.65;;;;;;;;;;4994688;28;20045;-69
2022/02/12 13:12:24;;;;;;;4.85;3.10;;;;;;;;;;4994490;28;20034;-69
2022/02/12 13:14:50;;;;;;;5.78;3.10;;;;;;;;;;4993336;28;20030;-68
2022/02/12 13:17:17;;;;;;;5.57;3.10;;;;;;;;;;4994631;28;20404;-69
2022/02/12 13:19:43;;;;;;;5.55;3.10;;;;;;;;;;4994048;28;20035;-69
2022/02/12 13:22:13;;;;;;;5.63;2.60;;;;;;;;;;4994122;28;20033;-69
2022/02/12 13:24:40;;;;;;;3.75;2.95;;;;;;;;;;4993618;28;20404;-68
2022/02/12 13:27:09;;;;;;;3.72;3.10;;;;;;;;;;4989723;28;20031;-70
2022/02/12 13:29:36;;;;;;;5.55;3.22;;;;;;;;;;4992463;28;20105;-69
2022/02/12 13:32:05;;;;;;;5.15;2.95;;;;;;;;;;4993361;28;20030;-69
2022/02/12 13:34:31;;;;;;;5.18;2.97;;;;;;;;;;4992044;28;20019;-70
2022/02/12 13:36:58;;;;;;;6.35;3.60;;;;;;;;;;4991883;28;20029;-70
2022/02/12 13:39:24;;;;;;;5.80;3.40;;;;;;;;;;4992258;28;20026;-67
2022/02/12 13:41:57;;;;;;;4.95;2.60;;;;;;;;;;4991941;28;20113;-71
2022/02/12 13:44:30;;;;;;;4.00;2.60;;;;;;;;;;4991277;28;20026;-71
2022/02/12 13:46:57;;;;;;;7.97;3.33;;;;;;;;;;4991494;28;20050;-68
2022/02/12 13:49:25;;;;;;;5.72;3.40;;;;;;;;;;4992042;28;20026;-71
2022/02/12 13:51:54;;;;;;;8.93;3.63;;;;;;;;;;4992581;28;20097;-69
2022/02/12 13:54:20;;;;;;;7.30;3.60;;;;;;;;;;4992871;28;20036;-70
2022/02/12 13:56:51;;;;;;;6.00;3.00;;;;;;;;;;4993849;28;20026;-70
2022/02/12 13:59:21;;;;;;;4.18;3.00;;;;;;;;;;4992629;28;20573;-69
2022/02/12 14:01:48;;;;;;;6.65;2.83;;;;;;;;;;4991605;28;20102;-69
2022/02/12 14:04:14;;;;;;;5.03;3.10;;;;;;;;;;4992690;28;20022;-68
2022/02/12 14:06:40;;;;;;;4.53;3.25;;;;;;;;;;4993480;28;20495;-67
2022/02/12 14:09:07;;;;;;;6.30;2.88;;;;;;;;;;4993469;28;20034;-70
2022/02/12 14:11:33;;;;;;;4.85;2.88;;;;;;;;;;4991611;28;20034;-67
2022/02/12 14:13:59;;;;;;;4.00;2.67;;;;;;;;;;4992579;28;20151;-67
2022/02/12 14:16:25;;;;;;;7.95;3.72;;;;;;;;;;4991975;28;20058;-68
2022/02/12 14:18:51;;;;;;;7.65;3.40;;;;;;;;;;4991391;28;20026;-69
2022/02/12 14:21:17;;;;;;;5.47;3.67;;;;;;;;;;4992661;28;20022;-69
2022/02/12 14:23:43;;;;;;;6.60;3.92;;;;;;;;;;4991239;28;20034;-70
2022/02/12 14:26:09;;;;;;;8.43;4.47;;;;;;;;;;4993143;28;20022;-68
2022/02/12 14:28:35;;;;;;;8.07;3.75;;;;;;;;;;4991491;28;20041;-70
2022/02/12 14:31:01;;;;;;;7.05;4.05;;;;;;;;;;4991756;28;20023;-69
2022/02/12 14:33:32;;;;;;;11.25;5.47;;;;;;;;;;4991332;28;20022;-69
2022/02/12 14:35:59;;;;;;;8.65;3.78;;;;;;;;;;4992042;28;20511;-71
2022/02/12 14:38:25;;;;;;;11.15;4.15;;;;;;;;;;4991806;28;20489;-69
2022/02/12 14:40:51;;;;;;;7.15;3.88;;;;;;;;;;4992344;28;20484;-70
2022/02/12 14:43:17;;;;;;;20.45;4.40;;;;;;;;;;5034624;23;20047;-74
2022/02/12 14:45:43;;;;;;;7.18;4.70;;;;;;;;;;5032827;28;20100;-73